createdAt,value
2023-04-15T00:06:43.442Z,72.9
2023-04-15T00:35:36.020Z,68.53
2023-04-15T01:04:31.064Z,79.28
2023-04-15T01:33:13.717Z,77.98
2023-04-15T02:02:17.333Z,70.14
2023-04-15T02:31:17.084Z,70.91
2023-04-15T03:00:13.037Z,73.64
2023-04-15T03:29:03.507Z,71.8
2023-04-15T03:57:48.550Z,76.25
2023-04-15T04:26:48.925Z,72.37
2023-04-15T04:55:48.315Z,71.54
2023-04-15T05:25:06.928Z,65.62
2023-04-15T05:54:07.257Z,73.86
2023-04-15T06:23:09.339Z,76.22
2023-04-15T06:52:17.924Z,71.05
2023-04-15T07:21:37.520Z,68.91
2023-04-15T07:50:17.075Z,59.36
2023-04-15T08:19:49.966Z,51.34
2023-04-15T08:48:17.218Z,54.17
2023-04-15T09:17:29.314Z,48.15
2023-04-15T09:46:01.193Z,48.41
2023-04-15T10:15:16.034Z,43.19
2023-04-15T10:44:19.856Z,43.67
2023-04-15T11:13:13.928Z,39.91
2023-04-15T11:41:58.050Z,37.66
2023-04-15T12:11:10.586Z,33.7
2023-04-15T12:39:48.866Z,33.89
2023-04-15T13:09:06.418Z,29.69
2023-04-15T13:37:30.496Z,34.44
2023-04-15T14:06:29.141Z,36.67
2023-04-15T14:35:29.107Z,38.7
2023-04-15T15:04:29.479Z,40.2
2023-04-15T15:33:18.506Z,41.16
2023-04-15T16:02:19.234Z,42.55
2023-04-15T16:30:59.402Z,32.55
2023-04-15T16:59:59.553Z,48.57
2023-04-15T17:29:01.572Z,49.21
2023-04-15T17:58:04.968Z,49.06
2023-04-15T18:26:56.014Z,64.14
2023-04-15T18:55:50.078Z,73.02
2023-04-15T19:24:48.049Z,84.84
2023-04-15T19:53:43.705Z,89.09
2023-04-15T20:22:42.569Z,95.42
2023-04-15T20:51:43.137Z,96.95
2023-04-15T21:20:50.664Z,100
2023-04-15T21:49:59.701Z,100
2023-04-15T22:18:48.589Z,100
2023-04-15T22:47:56.169Z,100
2023-04-15T23:16:56.027Z,100
2023-04-15T23:45:41.923Z,100
